Time;durP1;ratioP1;P1;durP2;ratioP2;P2;SDS_P1;SDS_P2;PMS_P1;PMS_P2;Temp;Humidity;BMP_temperature;BMP_pressure;BME280_temperature;BME280_humidity;BME280_pressure;Samples;Min_cycle;Max_cycle;Signal;HPM_P1;HPM_P2
2023/04/06 00:00:49;;;;;;;6.63;6.07;;;;;;;2.74;73.30;96823.72;5042076;28;20607;-59
2023/04/06 00:03:15;;;;;;;6.57;5.53;;;;;;;2.79;72.17;96820.84;5041370;28;20207;-58
2023/04/06 00:05:43;;;;;;;6.63;6.03;;;;;;;2.68;73.82;96818.88;5042473;28;20206;-58
2023/04/06 00:08:10;;;;;;;6.47;5.70;;;;;;;2.64;75.80;96820.00;5041831;28;20203;-60
2023/04/06 00:10:39;;;;;;;8.03;5.67;;;;;;;2.71;74.86;96813.47;5042778;28;20207;-59
2023/04/06 00:13:10;;;;;;;6.33;5.73;;;;;;;2.66;75.08;96809.47;5042148;28;20199;-59
2023/04/06 00:15:36;;;;;;;6.77;6.10;;;;;;;2.66;74.89;96806.88;5041053;28;20199;-59
2023/04/06 00:18:03;;;;;;;6.93;6.00;;;;;;;2.57;76.04;96813.44;5041115;28;20888;-58
2023/04/06 00:20:33;;;;;;;6.00;5.50;;;;;;;2.62;75.48;96807.97;5041813;28;20237;-59
2023/04/06 00:22:59;;;;;;;5.90;5.37;;;;;;;2.59;75.62;96808.16;5042967;28;20218;-59
2023/04/06 00:26:14;;;;;;;6.63;6.00;;;;;;;2.53;75.73;96809.34;5041135;28;20550;-60
2023/04/06 00:28:43;;;;;;;7.03;6.07;;;;;;;2.52;76.66;96805.03;5041739;28;20249;-59
2023/04/06 00:31:10;;;;;;;6.43;5.63;;;;;;;2.47;77.55;96805.34;5042168;28;20212;-59
2023/04/06 00:33:36;;;;;;;6.60;6.00;;;;;;;2.44;77.37;96805.47;5041118;28;20214;-60
2023/04/06 00:36:03;;;;;;;7.00;6.30;;;;;;;2.39;79.17;96793.66;5041600;28;20556;-59
2023/04/06 00:38:29;;;;;;;6.03;5.50;;;;;;;2.39;78.69;96796.25;5041927;28;20234;-60
2023/04/06 00:40:56;;;;;;;6.63;5.90;;;;;;;2.42;78.61;96796.06;5042714;28;20233;-58
2023/04/06 00:43:24;;;;;;;6.30;5.70;;;;;;;2.42;77.55;96796.06;5041739;28;20596;-59
2023/04/06 00:45:54;;;;;;;6.13;5.63;;;;;;;2.37;77.45;96796.34;5042277;28;20246;-60
2023/04/06 00:48:22;;;;;;;7.03;6.33;;;;;;;2.43;76.86;96792.53;5041157;28;20262;-59
2023/04/06 00:50:49;;;;;;;7.53;6.13;;;;;;;2.30;78.79;96788.97;5041516;28;20196;-59
2023/04/06 00:53:16;;;;;;;6.80;6.20;;;;;;;2.22;79.81;96796.41;5042309;28;20215;-58
2023/04/06 00:55:42;;;;;;;6.63;6.03;;;;;;;2.27;78.70;96789.97;5041699;28;20658;-60
2023/04/06 00:58:09;;;;;;;6.37;5.80;;;;;;;2.31;78.72;96788.03;5041547;28;20223;-58
2023/04/06 01:00:36;;;;;;;6.73;6.10;;;;;;;2.26;78.91;96787.47;5041906;28;20214;-58
2023/04/06 01:03:05;;;;;;;7.20;6.43;;;;;;;2.31;79.01;96788.88;5041083;28;20271;-58
2023/04/06 01:05:34;;;;;;;6.50;5.57;;;;;;;2.29;78.28;96780.31;5042178;28;20196;-58
2023/04/06 01:08:02;;;;;;;6.33;5.83;;;;;;;2.23;79.79;96785.03;5054894;28;20203;-58
2023/04/06 01:10:30;;;;;;;6.93;6.20;;;;;;;2.19;79.04;96779.16;5062139;28;20231;-60
2023/04/06 01:12:56;;;;;;;9.63;6.10;;;;;;;2.17;80.12;96780.16;5057828;28;20228;-59
2023/04/06 01:15:26;;;;;;;6.43;5.83;;;;;;;2.12;80.36;96782.22;5056274;28;20227;-58
2023/04/06 01:17:52;;;;;;;7.67;5.83;;;;;;;2.05;80.86;96776.50;5046923;28;20238;-59
2023/04/06 01:20:21;;;;;;;6.63;5.97;;;;;;;2.11;80.49;96780.53;5043072;28;20242;-59
2023/04/06 01:22:51;;;;;;;7.93;6.40;;;;;;;2.09;81.46;96772.78;5045047;28;20195;-58
2023/04/06 01:25:17;;;;;;;6.90;6.20;;;;;;;2.09;80.53;96771.97;5045847;28;20199;-59
2023/04/06 01:27:46;;;;;;;6.93;6.00;;;;;;;2.18;79.96;96763.59;5045038;28;20204;-60
2023/04/06 01:30:13;;;;;;;8.70;6.60;;;;;;;2.08;81.30;96765.91;5045785;28;20234;-59
2023/04/06 01:32:41;;;;;;;7.07;6.37;;;;;;;2.08;81.23;96759.84;5044845;28;20312;-59
2023/04/06 01:35:11;;;;;;;7.27;6.17;;;;;;;2.08;80.24;96759.84;5044662;28;20199;-59
2023/04/06 01:37:38;;;;;;;6.77;6.07;;;;;;;2.10;79.49;96768.41;5045369;28;20221;-60
2023/04/06 01:40:07;;;;;;;6.43;5.83;;;;;;;2.06;80.35;96761.69;5044022;28;20215;-58
2023/04/06 01:42:36;;;;;;;7.30;6.57;;;;;;;2.04;81.77;96763.53;5045103;28;20214;-58
2023/04/06 01:45:03;;;;;;;6.93;6.20;;;;;;;1.96;83.03;96761.38;5044018;28;20206;-58
2023/04/06 01:47:30;;;;;;;7.87;6.47;;;;;;;1.97;82.50;96757.84;5044419;28;20775;-59
2023/04/06 01:49:57;;;;;;;6.70;6.10;;;;;;;1.93;82.77;96765.00;5042715;28;20234;-59
2023/04/06 01:52:24;;;;;;;7.37;6.57;;;;;;;1.94;82.74;96761.47;5045388;28;20247;-58
2023/04/06 01:54:52;;;;;;;7.10;6.40;;;;;;;1.94;83.46;96758.88;5046067;28;20240;-58
2023/04/06 01:57:20;;;;;;;7.30;6.60;;;;;;;1.80;84.66;96761.44;5044652;28;20256;-60
2023/04/06 01:59:46;;;;;;;6.97;6.37;;;;;;;1.76;85.29;96762.53;5047754;28;20226;-59
2023/04/06 02:02:13;;;;;;;7.07;6.47;;;;;;;1.76;85.62;96759.06;5048619;28;20203;-59
2023/04/06 02:04:43;;;;;;;7.10;6.40;;;;;;;1.75;86.33;96758.22;5047046;28;20294;-59
2023/04/06 02:07:09;;;;;;;7.10;6.50;;;;;;;1.76;86.97;96761.69;5048743;28;20280;-59
2023/04/06 02:09:36;;;;;;;7.20;6.50;;;;;;;1.73;86.76;96756.63;5047661;28;20203;-59
2023/04/06 02:12:04;;;;;;;8.23;6.67;;;;;;;1.63;85.90;96758.91;5047064;28;20223;-58
2023/04/06 02:14:33;;;;;;;7.10;6.40;;;;;;;1.72;86.38;96758.41;5045927;28;20266;-59
2023/04/06 02:17:00;;;;;;;7.00;6.40;;;;;;;1.68;85.86;96754.28;5046168;28;20664;-59
2023/04/06 02:19:26;;;;;;;6.53;5.97;;;;;;;1.71;85.65;96761.94;5044892;28;20217;-59
2023/04/06 02:21:53;;;;;;;7.83;7.03;;;;;;;1.73;84.92;96764.47;5045295;28;20238;-59
2023/04/06 02:24:19;;;;;;;8.07;7.27;;;;;;;1.61;87.93;96755.56;5044047;28;20221;-59
2023/04/06 02:26:46;;;;;;;7.03;6.43;;;;;;;1.62;87.07;96761.63;5043870;28;20211;-58
2023/04/06 02:29:13;;;;;;;10.67;6.73;;;;;;;1.58;86.92;96763.53;5044934;28;20218;-59
2023/04/06 02:31:41;;;;;;;7.30;6.60;;;;;;;1.61;86.30;96767.75;5061174;28;20320;-60
2023/04/06 02:34:10;;;;;;;8.03;7.23;;;;;;;1.60;87.44;96766.91;5068570;28;20251;-59
2023/04/06 02:36:37;;;;;;;7.47;6.50;;;;;;;1.60;86.69;96764.28;5066458;28;20318;-60
2023/04/06 02:39:04;;;;;;;7.43;6.73;;;;;;;1.65;85.77;96759.66;5066149;28;20256;-60
2023/04/06 02:41:31;;;;;;;8.17;6.77;;;;;;;1.65;84.99;96767.50;5055605;28;20273;-60
2023/04/06 02:43:57;;;;;;;7.47;6.73;;;;;;;1.56;86.79;96760.16;5043596;28;20236;-60
2023/04/06 02:46:24;;;;;;;6.93;6.23;;;;;;;1.59;85.69;96762.63;5043446;28;20205;-58
2023/04/06 02:48:52;;;;;;;7.63;6.83;;;;;;;1.54;87.73;96759.44;5042778;28;20294;-60
2023/04/06 02:51:18;;;;;;;8.33;6.90;;;;;;;1.49;88.60;96761.44;5042984;28;20206;-59
2023/04/06 02:53:45;;;;;;;7.53;6.83;;;;;;;1.49;88.30;96761.44;5043055;28;20201;-58
2023/04/06 02:56:12;;;;;;;7.53;6.83;;;;;;;1.54;87.24;96759.44;5044036;28;20210;-58
2023/04/06 02:58:39;;;;;;;7.30;6.43;;;;;;;1.58;85.71;96760.09;5042837;28;20245;-58
2023/04/06 03:01:05;;;;;;;7.73;6.47;;;;;;;1.50;85.59;96752.69;5043074;28;20210;-58
2023/04/06 03:03:32;;;;;;;6.93;6.27;;;;;;;1.44;86.43;96755.66;5042424;28;20202;-58
2023/04/06 03:06:00;;;;;;;6.73;6.13;;;;;;;1.49;85.70;96761.44;5043451;28;20210;-60
2023/04/06 03:08:26;;;;;;;6.97;6.30;;;;;;;1.44;84.94;96755.66;5042948;28;20221;-60
2023/04/06 03:10:53;;;;;;;7.10;6.30;;;;;;;1.46;85.07;96759.00;5043082;28;20225;-58
2023/04/06 03:13:20;;;;;;;6.90;6.20;;;;;;;1.44;85.27;96753.06;5042840;28;20635;-59
2023/04/06 03:15:46;;;;;;;7.60;6.47;;;;;;;1.43;85.53;96756.56;5043591;28;20209;-59
2023/04/06 03:18:13;;;;;;;6.43;5.90;;;;;;;1.39;85.35;96760.28;5042543;28;20225;-59
2023/04/06 03:20:41;;;;;;;6.47;5.77;;;;;;;1.39;85.47;96757.66;5042945;28;20247;-59
2023/04/06 03:23:11;;;;;;;6.73;6.13;;;;;;;1.43;85.49;96757.41;5043320;28;20206;-59
2023/04/06 03:25:39;;;;;;;7.80;6.60;;;;;;;1.46;85.56;96756.41;5043597;28;20198;-60
2023/04/06 03:28:06;;;;;;;7.60;6.90;;;;;;;1.39;85.27;96761.13;5042618;28;20207;-60
2023/04/06 03:30:34;;;;;;;7.20;6.50;;;;;;;1.36;85.39;96756.06;5043831;28;20218;-59
2023/04/06 03:33:01;;;;;;;7.23;6.50;;;;;;;1.35;85.90;96753.53;5042978;28;20208;-58
2023/04/06 03:35:27;;;;;;;8.90;6.13;;;;;;;1.41;85.58;96753.22;5042449;28;20656;-58
2023/04/06 03:37:55;;;;;;;7.23;6.60;;;;;;;1.31;85.53;96759.88;5042298;28;20229;-57
2023/04/06 03:40:23;;;;;;;9.00;5.70;;;;;;;1.36;86.75;96750.88;5053718;28;20217;-60
2023/04/06 03:42:50;;;;;;;7.67;6.50;;;;;;;1.31;88.36;96754.66;5059554;28;20202;-60
2023/04/06 03:45:17;;;;;;;7.23;6.00;;;;;;;1.32;86.56;96761.53;5062610;28;20242;-59
2023/04/06 03:47:43;;;;;;;6.43;5.83;;;;;;;1.26;87.47;96761.88;5048026;28;20210;-58
2023/04/06 03:50:14;;;;;;;6.97;6.27;;;;;;;1.22;87.26;96757.75;5043145;28;20218;-58
2023/04/06 03:52:40;;;;;;;6.63;6.03;;;;;;;1.26;86.30;96752.31;5042629;28;20848;-58
2023/04/06 03:55:08;;;;;;;7.20;6.40;;;;;;;1.25;86.61;96763.63;5043322;28;20214;-58
2023/04/06 03:57:38;;;;;;;7.10;6.40;;;;;;;1.24;87.38;96767.16;5043022;28;20537;-58
2023/04/06 04:00:07;;;;;;;7.53;6.60;;;;;;;1.29;85.54;96769.53;5042923;28;20222;-60
2023/04/06 04:02:35;;;;;;;7.53;6.87;;;;;;;1.25;85.90;96768.84;5043818;28;20225;-58
2023/04/06 04:05:01;;;;;;;7.80;6.40;;;;;;;1.22;87.08;96769.00;5043333;28;20260;-60
2023/04/06 04:07:28;;;;;;;7.53;6.63;;;;;;;1.17;86.69;96770.19;5041030;28;20213;-60
2023/04/06 04:09:56;;;;;;;7.20;6.40;;;;;;;1.20;87.16;96764.81;5041895;28;20210;-58
2023/04/06 04:12:23;;;;;;;7.07;6.37;;;;;;;1.17;87.10;96773.63;5043259;28;20651;-59
2023/04/06 04:14:54;;;;;;;6.90;6.30;;;;;;;1.14;87.91;96770.34;5041797;28;20284;-59
2023/04/06 04:17:20;;;;;;;7.20;6.50;;;;;;;1.07;88.10;96769.84;5042949;28;20264;-57
2023/04/06 04:19:47;;;;;;;7.57;6.43;;;;;;;1.16;86.78;96769.34;5040864;28;20234;-57
2023/04/06 04:22:14;;;;;;;12.57;8.20;;;;;;;1.16;86.04;96781.53;5042690;28;20221;-58
2023/04/06 04:24:40;;;;;;;8.67;6.93;;;;;;;1.10;87.40;96779.25;5042078;28;20308;-59
2023/04/06 04:27:07;;;;;;;7.77;6.63;;;;;;;1.09;86.89;96774.97;5042094;28;20207;-58
2023/04/06 04:29:35;;;;;;;9.20;6.63;;;;;;;1.06;88.29;96777.75;5041423;28;20194;-59
2023/04/06 04:32:03;;;;;;;7.93;7.13;;;;;;;1.05;89.06;96776.06;5041961;28;20210;-59
2023/04/06 04:34:29;;;;;;;9.20;7.13;;;;;;;1.10;87.84;96792.28;5040510;28;20631;-59
2023/04/06 04:36:56;;;;;;;8.43;6.93;;;;;;;1.06;88.27;96778.59;5041602;28;20654;-59
2023/04/06 04:39:26;;;;;;;7.03;6.33;;;;;;;1.05;88.57;96781.25;5040604;28;20240;-57
2023/04/06 04:41:54;;;;;;;7.77;6.93;;;;;;;1.00;88.82;96784.94;5041638;28;20218;-57
2023/04/06 04:44:21;;;;;;;8.20;6.77;;;;;;;1.04;87.80;96785.63;5041409;28;20215;-58
2023/04/06 04:46:47;;;;;;;7.37;6.67;;;;;;;1.00;88.33;96784.94;5041924;28;20207;-59
2023/04/06 04:49:15;;;;;;;7.93;5.80;;;;;;;1.02;88.92;96784.88;5041025;28;20205;-57
2023/04/06 04:51:42;;;;;;;6.50;5.97;;;;;;;1.07;88.94;96793.28;5042923;28;20202;-57
2023/04/06 04:54:09;;;;;;;7.50;6.63;;;;;;;1.04;88.94;96787.38;5043061;28;20215;-60
2023/04/06 04:56:35;;;;;;;8.97;6.60;;;;;;;1.11;88.89;96792.19;5045462;28;20200;-58
2023/04/06 04:59:02;;;;;;;7.80;7.00;;;;;;;1.10;89.09;96789.69;5045736;28;20285;-59
2023/04/06 05:01:29;;;;;;;8.10;7.27;;;;;;;1.09;89.58;96786.22;5045655;28;20291;-59
2023/04/06 05:03:55;;;;;;;8.23;6.77;;;;;;;1.04;89.93;96795.19;5044946;28;20209;-58
2023/04/06 05:06:23;;;;;;;7.50;6.80;;;;;;;1.10;89.16;96794.91;5045108;28;20218;-58
2023/04/06 05:08:50;;;;;;;6.87;6.17;;;;;;;1.17;88.63;96798.84;5045525;28;20622;-61
2023/04/06 05:11:17;;;;;;;7.60;6.80;;;;;;;1.29;87.64;96798.16;5047932;28;20206;-59
2023/04/06 05:13:44;;;;;;;7.40;6.70;;;;;;;1.25;88.25;96802.72;5049177;28;20211;-57
2023/04/06 05:16:10;;;;;;;6.77;6.17;;;;;;;1.32;88.04;96805.81;5048358;28;20256;-57
2023/04/06 05:18:37;;;;;;;7.63;6.77;;;;;;;1.31;89.32;96804.16;5046215;28;20229;-58
2023/04/06 05:21:04;;;;;;;8.17;7.37;;;;;;;1.26;89.46;96808.75;5045004;28;20587;-58
2023/04/06 05:23:32;;;;;;;8.90;6.90;;;;;;;1.28;88.09;96806.91;5045473;28;20242;-58
2023/04/06 05:26:01;;;;;;;7.90;7.10;;;;;;;1.24;88.08;96805.41;5045206;28;20586;-58
2023/04/06 05:28:29;;;;;;;9.03;6.73;;;;;;;1.27;88.77;96813.06;5045526;28;20219;-57
2023/04/06 05:30:58;;;;;;;9.53;7.23;;;;;;;1.43;88.62;96816.50;5044522;28;20218;-57
2023/04/06 05:33:26;;;;;;;8.30;7.10;;;;;;;1.43;90.47;96819.94;5045056;28;20213;-57
2023/04/06 05:35:53;;;;;;;10.87;6.90;;;;;;;1.49;89.68;96823.97;5045744;28;20203;-58
2023/04/06 05:38:19;;;;;;;7.87;6.80;;;;;;;1.52;90.32;96821.22;5046133;28;20202;-57
2023/04/06 05:40:47;;;;;;;8.30;7.50;;;;;;;1.60;89.64;96821.63;5045744;28;20620;-58
2023/04/06 05:43:16;;;;;;;7.33;6.60;;;;;;;1.68;89.42;96827.28;5045578;28;20211;-57
2023/04/06 05:45:45;;;;;;;8.20;7.20;;;;;;;1.73;89.36;96832.25;5044601;28;20259;-57
2023/04/06 05:48:13;;;;;;;7.87;7.07;;;;;;;1.76;90.36;96830.31;5044835;28;20201;-57
2023/04/06 05:50:41;;;;;;;8.27;7.00;;;;;;;1.98;89.72;96828.16;5045112;28;20203;-59
2023/04/06 05:53:08;;;;;;;9.33;7.90;;;;;;;2.31;86.03;96821.94;5044515;28;20215;-59
2023/04/06 05:55:34;;;;;;;10.53;7.30;;;;;;;2.69;84.37;96833.63;5045367;28;20256;-57
2023/04/06 05:58:02;;;;;;;7.63;6.93;;;;;;;3.23;80.28;96831.22;5044335;28;20213;-59
2023/04/06 06:00:29;;;;;;;10.23;7.03;;;;;;;3.95;77.27;96826.63;5045266;28;20223;-58
2023/04/06 06:02:55;;;;;;;8.17;7.37;;;;;;;4.43;74.96;96829.59;5043945;28;20203;-58
2023/04/06 06:05:22;;;;;;;9.10;7.20;;;;;;;4.86;72.12;96835.44;5045228;28;20300;-57
2023/04/06 06:07:49;;;;;;;7.83;7.13;;;;;;;5.43;68.53;96830.59;5043788;28;20213;-59
2023/04/06 06:10:16;;;;;;;8.70;7.57;;;;;;;6.20;65.16;96832.94;5044476;28;20203;-58
2023/04/06 06:12:42;;;;;;;7.33;6.70;;;;;;;6.91;60.77;96835.47;5048665;28;20210;-58
2023/04/06 06:15:12;;;;;;;10.87;7.17;;;;;;;7.27;59.86;96838.88;5057158;28;20267;-61
2023/04/06 06:17:39;;;;;;;10.67;7.80;;;;;;;7.70;58.73;96837.22;5060442;28;20626;-59
2023/04/06 06:20:08;;;;;;;7.60;6.90;;;;;;;8.14;55.68;96841.59;5078728;28;20334;-59
2023/04/06 06:22:35;;;;;;;11.73;7.20;;;;;;;8.72;53.86;96837.72;5045930;28;20203;-58
2023/04/06 06:25:03;;;;;;;7.67;6.40;;;;;;;8.86;54.73;96840.03;5044388;28;20234;-60
2023/04/06 06:27:30;;;;;;;7.77;6.33;;;;;;;9.31;52.00;96842.44;5049283;28;20219;-58
2023/04/06 06:29:56;;;;;;;8.30;7.40;;;;;;;9.15;50.73;96848.16;5050188;28;20211;-58
2023/04/06 06:32:24;;;;;;;14.23;7.47;;;;;;;9.55;50.03;96845.59;5043068;28;20295;-58
2023/04/06 06:34:51;;;;;;;8.93;6.93;;;;;;;9.71;50.13;96839.81;5043567;28;20294;-58
2023/04/06 06:37:18;;;;;;;7.53;6.73;;;;;;;9.77;48.26;96840.16;5044192;28;20710;-58
2023/04/06 06:39:44;;;;;;;9.13;6.57;;;;;;;9.60;49.35;96842.59;5043382;28;20235;-58
2023/04/06 06:42:11;;;;;;;7.53;6.83;;;;;;;10.40;48.55;96835.47;5043708;28;20207;-58
2023/04/06 06:44:37;;;;;;;6.87;6.33;;;;;;;10.64;47.47;96835.06;5044001;28;20282;-58
2023/04/06 06:47:04;;;;;;;9.57;6.70;;;;;;;10.11;48.65;96838.03;5044024;28;20203;-58
2023/04/06 06:49:36;;;;;;;7.97;7.17;;;;;;;10.00;48.26;96840.78;5042954;28;20210;-59
2023/04/06 06:52:05;;;;;;;8.33;6.73;;;;;;;10.31;49.13;96837.13;5043423;28;20203;-57
2023/04/06 06:54:32;;;;;;;7.50;6.70;;;;;;;10.34;48.30;96841.31;5042294;28;20203;-59
2023/04/06 06:56:59;;;;;;;7.63;6.90;;;;;;;10.39;48.31;96837.28;5042830;28;20640;-58
2023/04/06 06:59:26;;;;;;;9.23;6.80;;;;;;;10.53;49.08;96843.97;5042690;28;20226;-58
2023/04/06 07:01:52;;;;;;;10.17;7.30;;;;;;;10.62;48.77;96839.66;5042954;28;20207;-58
2023/04/06 07:04:19;;;;;;;7.63;6.93;;;;;;;10.46;47.50;96837.56;5042401;28;20273;-58
2023/04/06 07:06:47;;;;;;;7.70;7.03;;;;;;;10.71;47.13;96829.09;5043210;28;20270;-58
2023/04/06 07:09:15;;;;;;;7.60;6.90;;;;;;;10.47;47.28;96833.94;5042724;28;20199;-59
2023/04/06 07:11:41;;;;;;;8.63;6.90;;;;;;;10.82;45.33;96834.25;5042795;28;20207;-59
2023/04/06 07:14:08;;;;;;;12.03;7.70;;;;;;;10.96;46.98;96835.63;5042650;28;20211;-57
2023/04/06 07:16:35;;;;;;;7.83;7.13;;;;;;;11.05;48.14;96832.16;5042572;28;20203;-58
2023/04/06 07:19:02;;;;;;;8.40;7.50;;;;;;;11.31;46.65;96822.59;5041379;28;20207;-58
2023/04/06 07:21:30;;;;;;;7.93;7.23;;;;;;;11.18;46.34;96829.19;5041901;28;20247;-58
2023/04/06 07:23:57;;;;;;;8.27;7.40;;;;;;;11.27;46.66;96825.66;5042031;28;20628;-58
2023/04/06 07:26:24;;;;;;;8.27;7.10;;;;;;;10.95;47.08;96824.19;5042185;28;20245;-58
2023/04/06 07:28:52;;;;;;;8.73;7.80;;;;;;;10.63;47.49;96826.28;5041424;28;20290;-58
2023/04/06 07:31:19;;;;;;;8.90;8.00;;;;;;;10.64;48.67;96827.13;5042259;28;20195;-58
2023/04/06 07:33:48;;;;;;;8.47;7.77;;;;;;;10.47;48.87;96828.66;5041786;28;20208;-58
2023/04/06 07:36:15;;;;;;;8.33;7.33;;;;;;;10.45;47.93;96825.34;5041817;28;20302;-58
2023/04/06 07:38:42;;;;;;;8.43;7.53;;;;;;;10.46;48.44;96822.53;5042248;28;20234;-58
2023/04/06 07:41:10;;;;;;;8.20;7.47;;;;;;;10.70;49.02;96813.38;5042131;28;20234;-59
2023/04/06 07:43:36;;;;;;;8.57;7.03;;;;;;;11.01;46.70;96821.97;5041623;28;20860;-58
2023/04/06 07:46:03;;;;;;;8.40;7.73;;;;;;;11.17;48.12;96828.34;5042538;28;20214;-57
2023/04/06 07:48:30;;;;;;;10.13;8.30;;;;;;;11.21;47.10;96829.75;5041694;28;20539;-58
2023/04/06 07:51:04;;;;;;;8.83;7.93;;;;;;;11.09;47.03;96819.47;5040821;28;21371;-59
2023/04/06 07:53:31;;;;;;;8.93;8.03;;;;;;;11.00;47.52;96823.78;5041660;28;20632;-58
2023/04/06 07:55:59;;;;;;;12.00;8.77;;;;;;;10.87;47.72;96831.19;5042416;28;20207;-59
2023/04/06 07:58:27;;;;;;;8.63;7.80;;;;;;;10.84;48.79;96826.97;5042060;28;20231;-58
2023/04/06 08:00:54;;;;;;;8.87;8.00;;;;;;;10.96;49.19;96831.16;5041481;28;20239;-57
2023/04/06 08:03:25;;;;;;;10.23;9.13;;;;;;;10.72;48.39;96825.47;5040337;28;20199;-58
2023/04/06 08:05:51;;;;;;;8.97;8.00;;;;;;;10.54;48.13;96829.78;5041929;28;20203;-57
2023/04/06 08:08:18;;;;;;;9.57;8.40;;;;;;;10.40;48.72;96824.91;5041097;28;20218;-59
2023/04/06 08:10:45;;;;;;;9.37;8.13;;;;;;;10.09;50.09;96824.13;5041880;28;20201;-57
2023/04/06 08:13:12;;;;;;;9.30;7.97;;;;;;;10.17;48.59;96826.09;5041202;28;21489;-58
2023/04/06 08:15:40;;;;;;;8.83;7.80;;;;;;;10.15;50.44;96822.75;5041594;28;20648;-58
2023/04/06 08:18:07;;;;;;;9.13;7.43;;;;;;;10.30;48.63;96826.69;5041059;28;20588;-58
2023/04/06 08:20:33;;;;;;;8.37;7.57;;;;;;;10.32;49.17;96825.56;5040970;28;20239;-58
2023/04/06 08:23:00;;;;;;;10.40;7.20;;;;;;;10.29;47.53;96831.13;5041897;28;20548;-58
2023/04/06 08:25:34;;;;;;;8.50;7.53;;;;;;;10.54;48.15;96821.84;5041674;28;20230;-57
2023/04/06 08:28:01;;;;;;;17.97;7.70;;;;;;;10.65;46.35;96821.72;5040330;28;20202;-58
2023/04/06 08:30:27;;;;;;;8.90;7.57;;;;;;;11.04;46.21;96822.53;5043058;28;20227;-61
2023/04/06 08:32:56;;;;;;;7.97;7.17;;;;;;;11.19;45.09;96820.28;5060827;28;20233;-58
2023/04/06 08:35:25;;;;;;;11.67;6.93;;;;;;;11.55;44.27;96822.09;5068895;28;20584;-59
2023/04/06 08:37:52;;;;;;;8.33;7.33;;;;;;;12.10;46.78;96823.03;5066585;28;20207;-58
2023/04/06 08:40:18;;;;;;;9.80;8.07;;;;;;;12.24;45.17;96819.03;5068222;28;20227;-58
2023/04/06 08:42:51;;;;;;;8.60;7.70;;;;;;;12.45;43.08;96824.91;5056857;28;20213;-58
2023/04/06 08:45:20;;;;;;;7.97;7.27;;;;;;;12.85;43.63;96819.16;5050205;28;20226;-59
2023/04/06 08:47:48;;;;;;;8.47;7.00;;;;;;;12.87;41.36;96815.34;5063796;28;20226;-59
2023/04/06 08:50:17;;;;;;;8.40;7.50;;;;;;;12.95;42.97;96818.09;5066430;28;20183;-59
2023/04/06 08:52:48;;;;;;;8.47;7.63;;;;;;;13.34;41.55;96812.44;5063750;28;20190;-59
2023/04/06 08:55:15;;;;;;;8.30;7.47;;;;;;;13.65;42.08;96813.59;5057573;28;20333;-58
2023/04/06 08:57:42;;;;;;;11.23;7.87;;;;;;;13.49;40.54;96816.19;5046697;28;20200;-57
2023/04/06 09:00:11;;;;;;;9.43;6.90;;;;;;;14.06;41.06;96811.16;5048103;28;20222;-59
2023/04/06 09:02:40;;;;;;;8.67;7.30;;;;;;;13.86;41.30;96811.38;5045517;28;20218;-59
2023/04/06 09:05:08;;;;;;;7.67;6.87;;;;;;;14.18;40.15;96809.84;5045537;28;20206;-60
2023/04/06 09:07:36;;;;;;;6.30;5.70;;;;;;;14.04;34.72;96813.13;5045274;28;20203;-59
2023/04/06 09:10:06;;;;;;;8.17;5.70;;;;;;;14.20;35.76;96810.53;5044903;28;20203;-58
2023/04/06 09:12:38;;;;;;;6.10;5.50;;;;;;;14.57;34.87;96808.31;5043708;28;20218;-59
2023/04/06 09:15:07;;;;;;;5.73;5.27;;;;;;;14.58;32.62;96807.34;5045233;28;20299;-57
2023/04/06 09:17:36;;;;;;;6.63;5.40;;;;;;;15.02;34.55;96804.38;5044441;28;20203;-58
2023/04/06 09:20:05;;;;;;;5.93;5.43;;;;;;;15.33;34.20;96800.03;5044291;28;20242;-58
2023/04/06 09:22:41;;;;;;;6.23;5.63;;;;;;;16.10;34.20;96801.19;5044304;28;20201;-58
2023/04/06 09:25:10;;;;;;;6.65;6.00;;;;;;;15.82;32.28;96798.97;5044546;28;20215;-58
2023/04/06 09:27:38;;;;;;;6.38;5.78;;;;;;;15.93;31.67;96790.59;5044913;28;20238;-59
2023/04/06 09:30:07;;;;;;;6.47;5.88;;;;;;;15.92;30.64;96791.59;5044771;28;20218;-59
2023/04/06 09:32:34;;;;;;;7.15;5.57;;;;;;;15.66;31.09;96796.31;5045024;28;20212;-58
2023/04/06 09:35:07;;;;;;;5.53;5.03;;;;;;;15.87;30.90;96791.25;5044122;28;20254;-58
2023/04/06 09:37:35;;;;;;;7.20;5.85;;;;;;;15.94;33.27;96797.56;5045555;28;20199;-58
2023/04/06 09:40:07;;;;;;;6.35;5.75;;;;;;;15.84;30.77;96791.59;5044660;28;20208;-58
2023/04/06 09:42:34;;;;;;;6.88;5.75;;;;;;;15.83;30.90;96789.97;5045077;28;20204;-59
2023/04/06 09:45:02;;;;;;;6.38;5.72;;;;;;;15.79;31.07;96798.47;5044557;28;20207;-58
2023/04/06 09:47:28;;;;;;;5.18;4.70;;;;;;;16.01;31.13;96792.41;5043057;28;20219;-59
2023/04/06 09:49:57;;;;;;;5.93;5.32;;;;;;;15.98;30.50;96786.56;5044326;28;20215;-59
2023/04/06 09:52:27;;;;;;;5.90;5.32;;;;;;;16.19;30.29;96784.94;5044748;28;20212;-59
2023/04/06 09:54:56;;;;;;;6.05;5.43;;;;;;;16.08;30.06;96781.88;5043611;28;20295;-59
2023/04/06 09:57:33;;;;;;;5.25;4.80;;;;;;;16.50;32.93;96782.31;5043976;28;20206;-58
2023/04/06 10:00:08;;;;;;;5.93;5.07;;;;;;;16.78;30.31;96788.81;5043206;28;20210;-58
2023/04/06 10:02:40;;;;;;;5.25;4.82;;;;;;;16.74;32.07;96787.50;5044111;28;20227;-59
2023/04/06 10:05:11;;;;;;;5.15;4.68;;;;;;;16.65;29.42;96791.22;5043575;28;20632;-58
2023/04/06 10:07:40;;;;;;;4.60;4.20;;;;;;;17.02;30.10;96786.97;5043799;28;20304;-58
2023/04/06 10:10:08;;;;;;;4.82;4.38;;;;;;;17.58;28.65;96794.47;5042651;28;20214;-58
2023/04/06 10:12:36;;;;;;;4.65;4.25;;;;;;;17.61;27.84;96788.78;5043481;28;20555;-58
2023/04/06 10:15:05;;;;;;;4.90;4.50;;;;;;;17.50;28.16;96797.19;5044058;28;20214;-59
2023/04/06 10:17:34;;;;;;;4.78;4.38;;;;;;;17.41;29.07;96793.78;5044454;28;20301;-59
2023/04/06 10:20:05;;;;;;;4.70;4.30;;;;;;;17.11;28.41;96799.25;5041820;28;20375;-58
2023/04/06 10:22:37;;;;;;;4.85;4.35;;;;;;;16.75;30.71;96794.53;5043429;28;20231;-57
2023/04/06 10:25:05;;;;;;;4.72;4.32;;;;;;;16.53;30.10;96789.94;5043174;28;20550;-59
2023/04/06 10:27:32;;;;;;;4.88;4.38;;;;;;;16.74;28.43;96792.84;5043597;28;20211;-58
2023/04/06 10:30:04;;;;;;;4.40;4.00;;;;;;;17.24;27.86;96796.78;5043252;28;20207;-59
2023/04/06 10:32:37;;;;;;;5.20;4.63;;;;;;;17.45;26.98;96790.75;5043900;28;20245;-58
2023/04/06 10:35:08;;;;;;;3.83;3.53;;;;;;;17.74;28.71;96788.97;5042301;28;20222;-58
2023/04/06 10:37:48;;;;;;;4.45;4.05;;;;;;;17.73;29.56;96787.31;5043994;28;20203;-58
2023/04/06 10:40:28;;;;;;;5.18;4.70;;;;;;;17.85;29.03;96782.34;5043022;28;20254;-57
2023/04/06 10:42:56;;;;;;;4.82;4.43;;;;;;;17.28;29.43;96780.22;5042839;28;20299;-58
2023/04/06 10:45:26;;;;;;;5.40;4.90;;;;;;;16.84;30.14;96780.09;5043313;28;20211;-58
2023/04/06 10:47:54;;;;;;;5.10;4.60;;;;;;;17.37;31.40;96786.31;5042387;28;20285;-58
2023/04/06 10:50:21;;;;;;;5.75;5.22;;;;;;;17.67;28.00;96782.72;5043289;28;20655;-58
2023/04/06 10:52:59;;;;;;;6.25;5.75;;;;;;;16.90;29.36;96770.50;5043484;28;20211;-59
2023/04/06 10:55:27;;;;;;;7.07;5.20;;;;;;;17.01;30.90;96772.75;5054848;28;20222;-57
2023/04/06 10:57:54;;;;;;;6.10;5.55;;;;;;;17.11;31.59;96777.88;5053527;28;20348;-58
2023/04/06 11:00:21;;;;;;;5.80;5.20;;;;;;;17.35;31.15;96777.66;5053305;28;20196;-59
2023/04/06 11:02:49;;;;;;;8.50;5.22;;;;;;;17.84;31.46;96769.97;5042612;28;20299;-59
2023/04/06 11:05:16;;;;;;;5.82;5.07;;;;;;;17.68;29.57;96772.81;5042017;28;20594;-59
2023/04/06 11:07:43;;;;;;;5.28;4.78;;;;;;;17.55;30.15;96777.94;5042145;28;20644;-59
2023/04/06 11:10:10;;;;;;;5.80;5.30;;;;;;;16.41;29.81;96761.97;5043193;28;20203;-61
2023/04/06 11:12:37;;;;;;;5.85;5.28;;;;;;;16.36;32.02;96761.69;5042729;28;20215;-61
2023/04/06 11:15:05;;;;;;;5.97;5.47;;;;;;;16.32;30.63;96761.22;5053220;28;21079;-59
2023/04/06 11:17:35;;;;;;;5.63;5.18;;;;;;;16.32;30.42;96757.72;5058895;28;20318;-59
2023/04/06 11:20:05;;;;;;;7.82;5.55;;;;;;;16.58;31.58;96755.56;5057366;28;20246;-59
2023/04/06 11:22:32;;;;;;;6.18;5.55;;;;;;;16.72;31.73;96753.97;5046239;28;20318;-58
2023/04/06 11:25:06;;;;;;;5.65;5.10;;;;;;;16.94;31.58;96755.78;5042832;28;20294;-58
2023/04/06 11:27:32;;;;;;;5.97;5.30;;;;;;;17.11;32.20;96751.16;5041541;28;20230;-59
2023/04/06 11:29:59;;;;;;;6.20;5.20;;;;;;;16.59;30.87;96743.03;5042176;28;20199;-59
2023/04/06 11:32:26;;;;;;;6.20;5.40;;;;;;;16.91;30.24;96743.63;5042531;28;20207;-58
2023/04/06 11:34:53;;;;;;;4.82;4.43;;;;;;;17.38;32.74;96745.22;5041687;28;20210;-58
2023/04/06 11:37:21;;;;;;;6.03;5.03;;;;;;;17.44;29.60;96741.78;5042999;28;21215;-58
2023/04/06 11:39:50;;;;;;;5.97;5.38;;;;;;;17.39;29.30;96746.88;5042144;28;20202;-59